Terminal Aerodrome Forecast
Issued by NWS Shreveport, LA

Home | Current Version | Previous Version | Text Only | Print | Product List | Glossary On
Versions: 1 2 3 4 5 6 7 8 9 10 11 12 13 14 15 16
000
FTUS44 KSHV 141200 AAA
TAFMLU
TAF AMD
KMLU 141208Z 1412/1512 VRB03KT P6SM SKC
      TEMPO 1412/1414 4SM BR
     FM141600 23007KT P6SM SKC
     FM142000 22008KT P6SM SCT050
     FM150700 24005KT P6SM VCTS SCT040 BKN080CB=

USA.gov is the U.S. government's official web portal to all federal, state and local government web resources and services.